Data for 03/18/2017

Time Sea-Level Adjusted Pressure Absolute Pressure Temperature Relative Humidity Dew Point   
(mb) (inHg) (mb) (inHg) (C) (F) (%) (C) (F)
00:05 1019 30.09 848 25.04 9.4 48.9 40 -3.5 25.7
00:10 1019 30.09 848 25.04 9.7 49.5 40 -3.2 26.2
00:15 1019 30.09 848 25.04 9.6 49.3 40 -3.3 26.1
00:20 1019 30.09 848 25.04 9.5 49.1 42 -2.8 27
00:25 1019 30.09 848 25.04 9.1 48.3 44 -2.5 27.5
00:30 1019 30.09 848 25.04 8.8 47.9 43 -3.1 26.5
00:35 1019 30.09 848 25.04 9 48.2 42 -3.2 26.2
00:40 1019 30.09 848 25.04 9.1 48.4 41 -3.4 25.8
00:45 1019 30.09 848 25.04 9.5 49.1 39 -3.7 25.3
00:50 1019 30.09 848 25.04 9.9 49.8 39 -3.2 26.2
00:55 1019 30.09 848 25.04 10 49.9 39 -3.3 26.1
01:00 1019 30.09 848 25.04 9.8 49.6 41 -2.9 26.7
01:05 1019 30.09 848 25.04 9.6 49.3 40 -3.3 26
01:10 1019 30.09 848 25.04 9.5 49.1 41 -3.1 26.4
01:15 1019 30.09 848 25.04 9.3 48.7 41 -3.3 26.1
01:20 1019 30.09 848 25.04 9.3 48.7 42 -3.1 26.4
01:25 1019 30.09 848 25.04 9.1 48.3 42 -3 26.6
01:30 1019 30.09 848 25.04 8.8 47.9 43 -3 26.6
01:35 1019 30.09 848 25.04 8.8 47.8 44 -2.8 27
01:40 1018 30.06 848 25.04 8.8 47.9 42 -3.4 25.9
01:45 1018 30.06 848 25.04 9.2 48.5 42 -3.2 26.3
01:50 1018 30.06 848 25.04 9.3 48.7 40 -3.5 25.7
01:55 1018 30.06 848 25.04 9.4 48.9 41 -3.1 26.4
02:00 1018 30.06 848 25.04 9.5 49.2 41 -3.2 26.2
02:05 1018 30.06 847 25.01 9.5 49.1 41 -3.1 26.4
02:10 1018 30.06 847 25.01 9.2 48.6 43 -2.7 27.2
02:15 1018 30.06 847 25.01 8.7 47.7 43 -3.1 26.4
02:20 1018 30.06 847 25.01 8.8 47.8 43 -3.1 26.5
02:25 1018 30.06 847 25.01 8.7 47.7 44 -2.8 26.9
02:30 1018 30.06 847 25.01 8.6 47.6 43 -3.1 26.4
02:35 1018 30.06 847 25.01 8.6 47.4 43 -3.1 26.4
02:40 1018 30.06 847 25.01 8.6 47.5 44 -3 26.5
02:45 1018 30.06 847 25.01 8.5 47.3 44 -3.1 26.4
02:50 1018 30.06 847 25.01 8.6 47.4 43 -3.2 26.2
02:55 1018 30.06 847 25.01 8.3 46.9 45 -2.9 26.7
03:00 1018 30.06 847 25.01 7.9 46.2 46 -3 26.6
03:05 1018 30.06 847 25.01 7.7 45.8 45 -3.4 25.9
03:10 1018 30.06 847 25.01 7.7 45.8 47 -2.8 26.9
03:15 1018 30.06 847 25.01 7.6 45.7 47 -3 26.5
03:20 1018 30.06 847 25.01 7.6 45.7 47 -3 26.6
03:25 1017 30.03 847 25.01 7.6 45.7 46 -3.2 26.2
03:30 1017 30.03 847 25.01 7.9 46.2 46 -3.1 26.5
03:35 1017 30.03 847 25.01 8.2 46.7 44 -3.3 26.1
03:40 1017 30.03 847 25.01 8.3 46.9 45 -3 26.6
03:45 1017 30.03 846 24.98 8.1 46.7 45 -3.2 26.3
03:50 1017 30.03 846 24.98 8 46.3 47 -2.6 27.3
03:55 1017 30.03 846 24.98 7.7 45.8 47 -3 26.7
04:00 1017 30.03 846 24.98 7.5 45.4 49 -2.6 27.3
04:05 1017 30.03 846 24.98 7.3 45.1 49 -2.7 27.2
04:10 1017 30.03 846 24.98 7.4 45.3 48 -2.8 26.9
04:15 1017 30.03 846 24.98 7.5 45.5 47 -3.1 26.4
04:20 1017 30.03 846 24.98 7.8 46 46 -3.1 26.4
04:25 1017 30.03 846 24.98 8.2 46.8 45 -3.1 26.5
04:30 1017 30.03 846 24.98 8.1 46.6 47 -2.6 27.3
04:35 1017 30.03 846 24.98 7.9 46.1 47 -2.8 26.9
04:40 1017 30.03 846 24.98 7.8 46 47 -2.7 27.2
04:45 1017 30.03 846 24.98 7.6 45.6 49 -2.5 27.6
04:50 1017 30.03 846 24.98 7.3 45.1 49 -2.6 27.3
04:55 1017 30.03 846 24.98 7.3 45.2 48 -2.9 26.8
05:00 1017 30.03 846 24.98 7.9 46.2 47 -2.9 26.9
05:05 1017 30.03 846 24.98 8.2 46.7 46 -2.8 27
05:10 1017 30.03 846 24.98 8.1 46.5 48 -2.3 27.8
05:15 1017 30.03 846 24.98 8 46.4 47 -2.7 27.2
05:20 1017 30.03 846 24.98 7.8 46.1 49 -2.1 28.1
05:25 1017 30.03 846 24.98 7.4 45.2 50 -2.4 27.6
05:30 1016 30 846 24.98 7.6 45.8 49 -2.3 27.8
05:35 1017 30.03 846 24.98 7.7 45.9 47 -2.8 26.9
05:40 1016 30 846 24.98 8.3 46.9 47 -2.5 27.6
05:45 1016 30 846 24.98 8 46.3 47 -2.8 27
05:50 1016 30 846 24.98 8.1 46.5 48 -2.3 27.8
05:55 1016 30 846 24.98 7.8 46.1 49 -2.3 27.9
06:00 1016 30 846 24.98 7.7 45.9 48 -2.6 27.4
06:05 1016 30 846 24.98 7.9 46.3 47 -2.6 27.3
06:10 1016 30 846 24.98 8 46.4 48 -2.4 27.7
06:15 1016 30 846 24.98 7.9 46.1 47 -2.6 27.3
06:20 1016 30 846 24.98 8.1 46.5 47 -2.7 27.2
06:25 1016 30 846 24.98 8.3 46.9 45 -2.8 27
06:30 1016 30 846 24.98 8.4 47.2 46 -2.5 27.5
06:35 1016 30 846 24.98 8.1 46.7 47 -2.6 27.4
06:40 1016 30 846 24.98 8.5 47.3 46 -2.5 27.4
06:45 1016 30 846 24.98 8.4 47.2 46 -2.4 27.6
06:50 1016 30 846 24.98 8.1 46.6 47 -2.6 27.3
06:55 1016 30 846 24.98 8.6 47.4 44 -2.9 26.8
07:00 1016 30 845 24.95 9.1 48.3 43 -2.8 27
07:05 1016 30 846 24.98 9.3 48.7 42 -2.8 26.9
07:10 1016 30 845 24.95 9.7 49.5 41 -3 26.6
07:15 1016 30 845 24.95 10 50 41 -2.8 27
07:20 1016 30 845 24.95 10.2 50.4 40 -2.8 26.9
07:25 1016 30 845 24.95 10.6 51 39 -2.9 26.8
07:30 1016 30 845 24.95 10.6 51.1 40 -2.4 27.6
07:35 1016 30 845 24.95 10.4 50.8 40 -2.4 27.6
07:40 1016 30 845 24.95 10.5 50.8 40 -2.6 27.2
07:45 1016 30 845 24.95 10.7 51.3 39 -2.8 27
07:50 1016 30 845 24.95 10.9 51.6 38 -2.8 26.9
07:55 1016 30 845 24.95 11.1 52 38 -2.7 27.2
08:00 1016 30 845 24.95 11.5 52.7 36 -2.9 26.8
08:05 1016 30 845 24.95 12 53.5 36 -2.6 27.3
08:10 1016 30 845 24.95 12.2 53.9 36 -2.6 27.3
08:15 1016 30 845 24.95 12.3 54.1 35 -2.7 27.2
08:20 1016 30 845 24.95 12.6 54.6 34 -2.7 27.1
08:25 1016 30 845 24.95 12.9 55.1 33 -3 26.6
08:30 1016 30 845 24.95 13.4 56 32 -2.9 26.8
08:35 1016 30 845 24.95 13.6 56.5 32 -2.6 27.3
08:40 1016 30 845 24.95 13.7 56.6 33 -2.3 27.8
08:45 1016 30 845 24.95 14 57.2 32 -2.3 27.8
08:50 1016 30 845 24.95 14.3 57.8 32 -2.3 27.9
08:55 1016 30 845 24.95 14.4 58 32 -2 28.5
09:00 1016 30 845 24.95 14.4 57.9 31 -2.3 27.8
09:05 1016 30 845 24.95 14.8 58.6 31 -2.2 28.1
09:10 1016 30 845 24.95 14.8 58.7 31 -2 28.5
09:15 1015 29.97 845 24.95 14.8 58.6 30 -2.7 27.1
09:20 1015 29.97 845 24.95 15.1 59.1 30 -2.3 27.8
09:25 1015 29.97 845 24.95 14.9 58.9 29 -2.6 27.3
09:30 1015 29.97 845 24.95 15 59 30 -2.3 27.8
09:35 1015 29.97 845 24.95 15.3 59.6 29 -2.4 27.7
09:40 1015 29.97 845 24.95 15.6 60.1 29 -2.3 27.9
09:45 1015 29.97 844 24.92 16 60.8 28 -2.3 27.9
09:50 1015 29.97 844 24.92 16 60.8 28 -2.2 28
09:55 1015 29.97 844 24.92 15.9 60.7 29 -1.9 28.6
10:00 1015 29.97 844 24.92 15.9 60.7 28 -2.4 27.7
10:05 1015 29.97 844 24.92 15.9 60.6 29 -2.1 28.2
10:10 1015 29.97 844 24.92 16 60.8 28 -2.5 27.6
10:15 1015 29.97 844 24.92 16.3 61.4 27 -2.5 27.5
10:20 1015 29.97 844 24.92 16.6 61.9 27 -2.4 27.7
10:25 1015 29.97 844 24.92 16.9 62.4 27 -2.3 27.9
10:30 1015 29.97 844 24.92 17.3 63.1 26 -2.4 27.6
10:35 1015 29.97 844 24.92 17.7 63.9 25 -2.5 27.6
10:40 1015 29.97 844 24.92 18.1 64.6 25 -2.2 28.1
10:45 1015 29.97 844 24.92 18.2 64.7 27 -1.1 30
10:50 1015 29.97 844 24.92 18.2 64.7 24 -2.5 27.4
10:55 1014 29.94 844 24.92 18.7 65.7 23 -2.8 27
11:00 1014 29.94 844 24.92 18.7 65.7 26 -1 30.3
11:05 1014 29.94 843 24.89 18.5 65.2 23 -3.1 26.5
11:10 1014 29.94 843 24.89 18.7 65.7 27 -0.3 31.4
11:15 1014 29.94 843 24.89 18.1 64.6 28 -0.6 30.8
11:20 1014 29.94 843 24.89 18.4 65.1 29 0.2 32.4
11:25 1014 29.94 843 24.89 17.6 63.8 29 -0.3 31.5
11:30 1014 29.94 843 24.89 17.5 63.5 30 -0.3 31.4
11:35 1014 29.94 843 24.89 17.8 64.1 30 0.2 32.4
11:40 1014 29.94 843 24.89 18.1 64.6 30 0.3 32.5
11:45 1014 29.94 843 24.89 17.5 63.5 31 0.1 32.2
11:50 1014 29.94 843 24.89 17.4 63.2 30 -0.4 31.2
11:55 1014 29.94 843 24.89 18 64.4 28 -0.4 31.2
12:00 1014 29.94 843 24.89 18.4 65.1 27 -0.8 30.6
12:05 1014 29.94 843 24.89 18.4 65.1 26 -1.2 29.9
12:10 1014 29.94 843 24.89 18.4 65.2 24 -2.1 28.2
12:15 1014 29.94 843 24.89 18.6 65.5 25 -1.6 29
12:20 1014 29.94 843 24.89 19 66.1 24 -1.9 28.5
12:25 1014 29.94 843 24.89 19.4 66.8 23 -2.2 28
12:30 1014 29.94 843 24.89 19.4 66.8 23 -1.9 28.5
12:35 1014 29.94 843 24.89 19.5 67 22 -2.4 27.7
12:40 1014 29.94 843 24.89 19.5 67 23 -2 28.4
12:45 1013 29.91 843 24.89 20.3 68.5 21 -2.8 26.9
12:50 1013 29.91 843 24.89 20.5 68.9 20 -2.9 26.7
12:55 1013 29.91 843 24.89 21.1 70 20 -2.5 27.4
13:00 1013 29.91 843 24.89 20.7 69.2 20 -2.7 27.2
13:05 1013 29.91 843 24.89 21 69.8 18 -4.1 24.6
13:10 1013 29.91 842 24.86 20.8 69.5 23 -0.8 30.6
13:15 1013 29.91 842 24.86 20.3 68.5 27 0.6 33.1
13:20 1013 29.91 842 24.86 20.3 68.5 27 1.1 34
13:25 1013 29.91 842 24.86 20.2 68.4 27 0.8 33.5
13:30 1013 29.91 842 24.86 20.2 68.4 24 -0.6 30.9
13:35 1013 29.91 842 24.86 20.7 69.2 23 -1.2 29.8
13:40 1013 29.91 842 24.86 21.3 70.3 21 -1.7 28.9
13:45 1013 29.91 842 24.86 21.9 71.5 17 -3.9 24.9
13:50 1013 29.91 842 24.86 21.1 69.9 17 -4.5 23.9
13:55 1013 29.91 842 24.86 20.5 68.8 18 -4.7 23.5
14:00 1013 29.91 842 24.86 20.6 69.1 18 -4 24.7
14:05 1013 29.91 842 24.86 20.3 68.5 18 -4.7 23.6
14:10 1013 29.91 842 24.86 20.1 68.3 19 -3.8 25.2
14:15 1013 29.91 842 24.86 20.1 68.2 18 -4.6 23.7
14:20 1013 29.91 842 24.86 20 67.9 19 -4.2 24.5
14:25 1013 29.91 842 24.86 19.9 67.8 19 -4 24.9
14:30 1013 29.91 842 24.86 19.8 67.7 19 -4.2 24.5
14:35 1013 29.91 842 24.86 19.6 67.3 19 -4.7 23.5
14:40 1013 29.91 842 24.86 19.5 67 20 -4.1 24.6
14:45 1013 29.91 842 24.86 19.4 67 20 -4.2 24.4
14:50 1013 29.91 842 24.86 19.4 66.8 20 -3.9 25
14:55 1012 29.88 842 24.86 19.1 66.4 19 -4.7 23.5
15:00 1012 29.88 842 24.86 19 66.2 20 -4.1 24.6
15:05 1012 29.88 842 24.86 18.9 66.1 20 -4.7 23.5
15:10 1012 29.88 842 24.86 18.9 66 20 -4.2 24.4
15:15 1012 29.88 842 24.86 18.8 65.8 21 -3.9 24.9
15:20 1012 29.88 841 24.83 18.6 65.5 21 -4 24.9
15:25 1012 29.88 841 24.83 18.5 65.2 22 -3.8 25.2
15:30 1012 29.88 841 24.83 18.5 65.4 20 -4.8 23.4
15:35 1012 29.88 841 24.83 18.5 65.4 21 -4 24.9
15:40 1012 29.88 841 24.83 18.5 65.3 21 -4.3 24.2
15:45 1012 29.88 841 24.83 18.4 65.2 20 -4.6 23.8
15:50 1012 29.88 841 24.83 18.5 65.3 21 -4.4 24
15:55 1012 29.88 841 24.83 18.4 65.2 21 -4.1 24.7
16:00 1012 29.88 841 24.83 18.5 65.2 21 -4.3 24.2
16:05 1012 29.88 841 24.83 18.5 65.2 20 -4.9 23.2
16:10 1012 29.88 841 24.83 18.5 65.3 20 -4.7 23.5
16:15 1012 29.88 841 24.83 18.5 65.3 20 -4.7 23.5
16:20 1012 29.88 841 24.83 18.5 65.3 19 -5.2 22.6
16:25 1012 29.88 841 24.83 18.5 65.2 20 -4.8 23.3
16:30 1012 29.88 841 24.83 18.4 65.2 20 -5.1 22.9
16:35 1012 29.88 841 24.83 18.3 65 20 -4.6 23.7
16:40 1012 29.88 841 24.83 18.3 64.9 21 -4.6 23.6
16:45 1012 29.88 841 24.83 18.2 64.8 20 -5.1 22.8
16:50 1012 29.88 841 24.83 18.3 64.9 19 -5.5 22
16:55 1012 29.88 841 24.83 18.2 64.8 21 -4.6 23.7
17:00 1012 29.88 841 24.83 18.1 64.6 19 -5.7 21.7
17:05 1012 29.88 841 24.83 18.4 65.2 19 -5.7 21.8
17:10 1012 29.88 841 24.83 18.4 65.1 19 -5.2 22.6
17:15 1012 29.88 841 24.83 18.3 65 19 -5.6 21.9
17:20 1012 29.88 841 24.83 18.2 64.7 20 -5 23
17:25 1012 29.88 841 24.83 18.1 64.5 19 -5.5 22.2
17:30 1012 29.88 841 24.83 18.2 64.7 19 -5.6 21.9
17:35 1012 29.88 841 24.83 18.3 65 19 -5.3 22.5
17:40 1012 29.88 841 24.83 17.9 64.3 21 -4.5 23.8
17:45 1012 29.88 841 24.83 17.7 63.9 21 -4.6 23.7
17:50 1012 29.88 841 24.83 17.5 63.5 21 -4.7 23.5
17:55 1012 29.88 841 24.83 17.5 63.4 21 -4.9 23.2
18:00 1012 29.88 841 24.83 17.5 63.5 21 -4.9 23.1
18:05 1012 29.88 841 24.83 17.5 63.6 21 -4.9 23.2
18:10 1012 29.88 841 24.83 17.6 63.7 21 -5 23
18:15 1012 29.88 842 24.86 17.5 63.4 22 -4.7 23.6
18:20 1012 29.88 842 24.86 17.3 63.2 21 -5.1 22.8
18:25 1012 29.88 842 24.86 17.4 63.2 22 -4.7 23.6
18:30 1012 29.88 842 24.86 17.2 63 21 -4.9 23.2
18:35 1012 29.88 842 24.86 17.3 63.1 22 -4.6 23.8
18:40 1013 29.91 842 24.86 17 62.6 23 -4.4 24.1
18:45 1013 29.91 842 24.86 16.8 62.3 23 -4.2 24.4
18:50 1013 29.91 842 24.86 16.8 62.2 23 -4.5 23.9
18:55 1013 29.91 842 24.86 16.8 62.2 23 -4.5 23.9
19:00 1013 29.91 842 24.86 16.9 62.4 23 -4.3 24.3
19:05 1013 29.91 842 24.86 16.7 62.1 24 -3.9 25
19:10 1013 29.91 842 24.86 16.5 61.7 24 -3.9 24.9
19:15 1013 29.91 842 24.86 16.4 61.5 24 -4.1 24.7
19:20 1013 29.91 843 24.89 16.3 61.4 29 -1.4 29.4
19:25 1013 29.91 843 24.89 15 59 36 0.3 32.5
19:30 1014 29.94 843 24.89 14.1 57.4 41 1.3 34.3
19:35 1013 29.91 843 24.89 13.7 56.7 40 0.3 32.5
19:40 1014 29.94 843 24.89 13.7 56.6 39 -0 31.9
19:45 1014 29.94 843 24.89 13.7 56.7 39 -0 32
19:50 1014 29.94 843 24.89 13.7 56.7 38 -0.4 31.2
19:55 1014 29.94 843 24.89 13.8 56.8 37 -0.4 31.3
20:00 1014 29.94 843 24.89 13.6 56.4 44 1.6 34.9
20:05 1014 29.94 843 24.89 12.8 55.1 48 2.1 35.7
20:10 1014 29.94 843 24.89 12.5 54.4 48 1.8 35.3
20:15 1014 29.94 843 24.89 12.2 54 49 1.9 35.3
20:20 1014 29.94 843 24.89 12.1 53.7 49 1.7 35.1
20:25 1014 29.94 843 24.89 11.9 53.4 49 1.7 35
20:30 1014 29.94 843 24.89 11.8 53.3 48 1.2 34.2
20:35 1014 29.94 843 24.89 12.1 53.8 44 0.3 32.5
20:40 1014 29.94 843 24.89 12.4 54.3 44 0.4 32.8
20:45 1014 29.94 843 24.89 12.6 54.6 39 -0.8 30.5
20:50 1014 29.94 843 24.89 13 55.4 39 -0.5 31.1
20:55 1014 29.94 843 24.89 13 55.3 39 -0.6 30.9
21:00 1014 29.94 843 24.89 12.6 54.7 42 -0.1 31.9
21:05 1014 29.94 843 24.89 12.3 54.2 41 -0.6 31
21:10 1014 29.94 843 24.89 12.2 54 42 -0.4 31.4
21:15 1014 29.94 843 24.89 12.3 54.1 40 -0.9 30.3
21:20 1014 29.94 843 24.89 12.4 54.3 40 -0.6 30.9
21:25 1014 29.94 843 24.89 12.3 54.1 42 -0.2 31.6
21:30 1014 29.94 843 24.89 12.1 53.8 42 -0.4 31.3
21:35 1014 29.94 843 24.89 11.9 53.4 44 -0 32
21:40 1014 29.94 843 24.89 11.6 52.9 44 -0.1 31.9
21:45 1014 29.94 843 24.89 11.5 52.7 45 -0 31.9
21:50 1014 29.94 843 24.89 11.4 52.5 45 -0.1 31.7
21:55 1014 29.94 843 24.89 11.3 52.4 45 0 32
22:00 1014 29.94 843 24.89 11.3 52.3 45 -0.1 31.9
22:05 1014 29.94 843 24.89 11.2 52.2 45 -0.2 31.7
22:10 1014 29.94 843 24.89 11.4 52.5 43 -0.6 30.9
22:15 1014 29.94 843 24.89 11.7 53 43 -0.6 31
22:20 1014 29.94 843 24.89 11.8 53.2 42 -0.6 30.8
22:25 1014 29.94 843 24.89 11.7 53.1 42 -0.6 31
22:30 1014 29.94 843 24.89 11.6 52.8 43 -0.6 30.9
22:35 1014 29.94 843 24.89 11.5 52.6 41 -1.2 29.9
22:40 1014 29.94 843 24.89 11.8 53.3 40 -1.3 29.7
22:45 1014 29.94 843 24.89 12.3 54.1 42 -0.3 31.4
22:50 1014 29.94 843 24.89 12.2 53.9 41 -0.5 31.2
22:55 1014 29.94 843 24.89 11.7 53.1 42 -0.8 30.5
23:00 1014 29.94 843 24.89 11.6 52.9 42 -0.8 30.5
23:05 1014 29.94 843 24.89 11.5 52.7 42 -0.8 30.6
23:10 1014 29.94 843 24.89 11.3 52.3 45 -0.3 31.5
23:15 1014 29.94 843 24.89 10.7 51.3 46 -0.4 31.3
23:20 1014 29.94 843 24.89 10.5 50.9 46 -0.7 30.8
23:25 1014 29.94 843 24.89 10.6 51.1 45 -0.8 30.5
23:30 1014 29.94 843 24.89 10.6 51.1 47 -0.3 31.4
23:35 1014 29.94 843 24.89 10.3 50.6 46 -0.6 30.8
23:40 1014 29.94 843 24.89 10.3 50.5 47 -0.6 30.9
23:45 1014 29.94 843 24.89 10.3 50.6 46 -0.8 30.5
23:50 1014 29.94 843 24.89 10.5 50.8 48 -0.1 31.8
23:55 1014 29.94 843 24.89 10.1 50.2 47 -0.5 31
24:00 1014 29.94 843 24.89 10.3 50.5 46 -0.9 30.3